createdAt,value
2019-01-26T00:01:23.493Z,18.27
2019-01-26T00:03:50.335Z,18.77
2019-01-26T00:06:17.179Z,18.37
2019-01-26T00:08:43.716Z,19.57
2019-01-26T00:11:10.561Z,17.70
2019-01-26T00:13:37.078Z,19.23
2019-01-26T00:16:03.623Z,19.77
2019-01-26T00:18:31.035Z,19.73
2019-01-26T00:20:57.919Z,19.27
2019-01-26T00:23:24.741Z,19.90
2019-01-26T00:25:51.294Z,19.23
2019-01-26T00:28:18.136Z,18.77
2019-01-26T00:30:44.677Z,19.73
2019-01-26T00:33:11.205Z,19.10
2019-01-26T00:35:38.047Z,19.60
2019-01-26T00:38:04.889Z,19.97
2019-01-26T00:40:31.422Z,18.97
2019-01-26T00:42:57.957Z,19.67
2019-01-26T00:45:24.496Z,18.77
2019-01-26T00:47:51.026Z,19.83
2019-01-26T00:50:17.869Z,20.73
2019-01-26T00:52:44.711Z,20.50
2019-01-26T00:55:11.244Z,19.23
2019-01-26T00:57:38.087Z,18.83
2019-01-26T01:00:04.621Z,18.13
2019-01-26T01:02:31.155Z,19.70
2019-01-26T01:04:57.998Z,21.37
2019-01-26T01:07:24.532Z,21.73
2019-01-26T01:09:51.066Z,18.63
2019-01-26T01:12:17.907Z,20.13
2019-01-26T01:14:44.443Z,21.10
2019-01-26T01:17:11.285Z,19.87
2019-01-26T01:19:37.818Z,20.93
2019-01-26T01:22:04.661Z,21.37
2019-01-26T01:24:31.195Z,21.40
2019-01-26T01:26:58.035Z,21.20
2019-01-26T01:29:24.878Z,21.57
2019-01-26T01:31:51.719Z,19.50
2019-01-26T01:34:18.253Z,21.23
2019-01-26T01:36:44.792Z,20.83
2019-01-26T01:39:11.323Z,20.73
2019-01-26T01:41:38.164Z,21.67
2019-01-26T01:44:05.005Z,21.67
2019-01-26T01:46:31.847Z,21.10
2019-01-26T01:48:58.387Z,21.57
2019-01-26T01:51:25.224Z,21.63
2019-01-26T01:53:52.054Z,20.63
2019-01-26T01:56:18.909Z,22.93
2019-01-26T01:58:45.442Z,19.73
2019-01-26T02:01:12.283Z,21.97
2019-01-26T02:03:38.818Z,22.57
2019-01-26T02:06:05.650Z,21.27
2019-01-26T02:08:32.194Z,21.70
2019-01-26T02:10:59.037Z,22.93
2019-01-26T02:13:25.879Z,21.03
2019-01-26T02:15:52.412Z,20.93
2019-01-26T02:18:18.949Z,22.67
2019-01-26T02:20:45.789Z,21.50
2019-01-26T02:23:12.323Z,23.13
2019-01-26T02:25:38.857Z,21.67
2019-01-26T02:28:05.700Z,20.97
2019-01-26T02:30:32.541Z,23.17
2019-01-26T02:32:59.075Z,22.40
2019-01-26T02:35:25.611Z,21.93
2019-01-26T02:37:52.450Z,21.70
2019-01-26T02:40:18.988Z,21.97
2019-01-26T02:42:45.638Z,23.20
2019-01-26T02:45:12.366Z,20.23
2019-01-26T02:47:38.903Z,22.17
2019-01-26T02:50:05.738Z,21.53
2019-01-26T02:52:32.277Z,23.93
2019-01-26T02:54:58.811Z,21.87
2019-01-26T02:57:25.342Z,21.90
2019-01-26T02:59:52.183Z,22.60
2019-01-26T03:02:18.721Z,25.10
2019-01-26T03:04:45.255Z,22.57
2019-01-26T03:07:12.096Z,21.17
2019-01-26T03:09:38.630Z,22.43
2019-01-26T03:12:05.470Z,22.20
2019-01-26T03:14:32.006Z,22.83
2019-01-26T03:17:05.599Z,23.33
2019-01-26T03:19:26.919Z,22.47
2019-01-26T03:21:53.760Z,23.73
2019-01-26T03:24:20.602Z,22.20
2019-01-26T03:26:47.139Z,21.77
2019-01-26T03:29:13.979Z,22.97
2019-01-26T03:31:40.823Z,24.53
2019-01-26T03:34:07.356Z,22.23
2019-01-26T03:36:34.195Z,22.57
2019-01-26T03:39:01.036Z,21.53
2019-01-26T03:41:27.572Z,22.53
2019-01-26T03:43:54.108Z,25.50
2019-01-26T03:46:20.639Z,22.27
2019-01-26T03:48:47.176Z,24.93
2019-01-26T03:51:13.710Z,22.40
2019-01-26T03:53:40.552Z,21.73
2019-01-26T03:56:07.096Z,23.20
2019-01-26T03:58:33.622Z,21.67
2019-01-26T04:01:00.446Z,21.97
2019-01-26T04:03:27.305Z,22.23
2019-01-26T04:05:53.838Z,22.57
2019-01-26T04:08:20.374Z,21.13
2019-01-26T04:10:47.214Z,22.37
2019-01-26T04:13:14.060Z,24.30
2019-01-26T04:15:40.590Z,21.63
2019-01-26T04:18:07.434Z,23.90
2019-01-26T04:20:34.276Z,23.87
2019-01-26T04:23:00.808Z,22.03
2019-01-26T04:25:27.657Z,22.50
2019-01-26T04:27:54.185Z,22.10
2019-01-26T04:30:20.720Z,22.13
2019-01-26T04:32:47.253Z,22.70
2019-01-26T04:35:14.103Z,21.63
2019-01-26T04:37:40.941Z,21.47
2019-01-26T04:40:07.476Z,21.23
2019-01-26T04:42:34.316Z,20.23
2019-01-26T04:45:00.852Z,21.57
2019-01-26T04:47:31.142Z,21.63
2019-01-26T04:49:55.791Z,21.40
2019-01-26T04:52:22.602Z,21.50
2019-01-26T04:54:49.445Z,21.23
2019-01-26T04:57:15.979Z,19.87
2019-01-26T04:59:42.823Z,20.40
2019-01-26T05:02:09.667Z,21.90
2019-01-26T05:04:36.204Z,19.57
2019-01-26T05:07:02.731Z,22.70
2019-01-26T05:09:29.572Z,22.20
2019-01-26T05:11:56.108Z,20.03
2019-01-26T05:14:22.950Z,19.57
2019-01-26T05:16:49.793Z,21.30
2019-01-26T05:19:16.326Z,18.97
2019-01-26T05:21:43.169Z,21.83
2019-01-26T05:24:09.700Z,20.27
2019-01-26T05:26:36.542Z,19.17
2019-01-26T05:29:03.077Z,21.30
2019-01-26T05:31:29.920Z,19.80
2019-01-26T05:33:56.442Z,20.33
2019-01-26T05:36:22.988Z,20.27
2019-01-26T05:38:49.829Z,20.90
2019-01-26T05:41:16.379Z,20.63
2019-01-26T05:43:42.899Z,21.33
2019-01-26T05:46:09.434Z,20.90
2019-01-26T05:48:36.274Z,21.10
2019-01-26T05:51:03.116Z,20.60
2019-01-26T05:53:29.959Z,19.03
2019-01-26T05:55:56.495Z,21.73
2019-01-26T05:58:23.027Z,22.00
2019-01-26T06:00:49.564Z,21.03
2019-01-26T06:03:16.404Z,21.07
2019-01-26T06:05:43.248Z,20.63
2019-01-26T06:08:09.781Z,21.37
2019-01-26T06:10:36.628Z,19.73
2019-01-26T06:13:03.163Z,21.10
2019-01-26T06:15:30.020Z,20.03
2019-01-26T06:17:56.515Z,18.07
2019-01-26T06:20:23.072Z,19.33
2019-01-26T06:22:49.909Z,19.17
2019-01-26T06:25:16.457Z,22.23
2019-01-26T06:27:43.265Z,20.70
2019-01-26T06:30:09.821Z,18.13
2019-01-26T06:32:36.660Z,18.73
2019-01-26T06:35:03.504Z,20.57
2019-01-26T06:37:30.036Z,19.50
2019-01-26T06:39:56.558Z,19.37
2019-01-26T06:42:23.412Z,18.83
2019-01-26T06:44:50.254Z,20.30
2019-01-26T06:47:16.788Z,18.53
2019-01-26T06:49:43.324Z,17.43
2019-01-26T06:52:09.859Z,18.63
2019-01-26T06:54:36.393Z,19.17
2019-01-26T06:57:03.234Z,18.93
2019-01-26T06:59:29.768Z,17.97
2019-01-26T07:01:56.390Z,19.93
2019-01-26T07:04:23.144Z,19.50
2019-01-26T07:06:49.986Z,19.70
2019-01-26T07:09:16.829Z,17.70
2019-01-26T07:11:43.363Z,18.30
2019-01-26T07:14:09.896Z,18.37
2019-01-26T07:16:36.434Z,18.37
2019-01-26T07:19:02.966Z,19.13
2019-01-26T07:21:29.807Z,18.60
2019-01-26T07:23:56.342Z,18.47
2019-01-26T07:26:22.877Z,17.93
2019-01-26T07:28:49.411Z,18.93
2019-01-26T07:31:16.252Z,17.03
2019-01-26T07:33:42.787Z,20.40
2019-01-26T07:36:09.628Z,17.90
2019-01-26T07:38:36.183Z,17.93
2019-01-26T07:41:02.697Z,17.67
2019-01-26T07:43:29.232Z,16.63
2019-01-26T07:45:56.077Z,16.60
2019-01-26T07:48:22.611Z,16.80
2019-01-26T07:50:49.450Z,17.73
2019-01-26T07:53:15.985Z,16.80
2019-01-26T07:55:42.826Z,18.67
2019-01-26T07:58:09.364Z,16.80
2019-01-26T08:00:35.898Z,18.60
2019-01-26T08:03:02.430Z,17.60
2019-01-26T08:05:29.270Z,16.00
2019-01-26T08:07:55.808Z,17.30
2019-01-26T08:10:22.954Z,18.57
2019-01-26T08:12:49.796Z,17.57
2019-01-26T08:15:16.336Z,16.37
2019-01-26T08:17:42.866Z,18.40
2019-01-26T08:20:09.707Z,16.63
2019-01-26T08:22:36.549Z,17.03
2019-01-26T08:25:03.089Z,17.60
2019-01-26T08:27:29.617Z,16.50
2019-01-26T08:29:56.153Z,15.40
2019-01-26T08:32:22.995Z,16.47
2019-01-26T08:34:49.838Z,18.17
2019-01-26T08:37:16.370Z,16.63
2019-01-26T08:39:43.212Z,16.20
2019-01-26T08:42:09.749Z,15.90
2019-01-26T08:44:36.588Z,16.17
2019-01-26T08:47:03.434Z,15.90
2019-01-26T08:49:29.963Z,17.03
2019-01-26T08:51:56.808Z,14.03
2019-01-26T08:54:23.342Z,16.03
2019-01-26T08:56:49.882Z,14.50
2019-01-26T08:59:16.716Z,16.13
2019-01-26T09:01:43.252Z,15.20
2019-01-26T09:04:09.787Z,15.07
2019-01-26T09:06:36.629Z,15.00
2019-01-26T09:09:03.164Z,17.23
2019-01-26T09:11:29.698Z,14.53
2019-01-26T09:13:56.243Z,17.13
2019-01-26T09:16:23.075Z,15.87
2019-01-26T09:18:49.608Z,15.23
2019-01-26T09:21:16.143Z,15.30
2019-01-26T09:23:42.986Z,15.77
2019-01-26T09:26:09.520Z,14.70
2019-01-26T09:28:36.359Z,16.90
2019-01-26T09:31:02.895Z,15.70
2019-01-26T09:33:29.736Z,14.73
2019-01-26T09:35:56.577Z,15.23
2019-01-26T09:38:23.112Z,15.57
2019-01-26T09:40:49.694Z,13.93
2019-01-26T09:43:16.487Z,16.13
2019-01-26T09:45:43.023Z,15.90
2019-01-26T09:48:09.864Z,13.77
2019-01-26T09:50:36.706Z,15.63
2019-01-26T09:53:03.239Z,14.80
2019-01-26T09:55:29.775Z,15.73
2019-01-26T09:57:56.309Z,16.13
2019-01-26T10:00:23.151Z,15.17
2019-01-26T10:02:49.690Z,17.07
2019-01-26T10:05:16.219Z,15.47
2019-01-26T10:07:42.753Z,14.77
2019-01-26T10:10:09.288Z,16.13
2019-01-26T10:12:36.130Z,14.97
2019-01-26T10:15:02.665Z,14.70
2019-01-26T10:17:29.207Z,14.90
2019-01-26T10:19:56.045Z,14.33
2019-01-26T10:22:22.575Z,15.33
2019-01-26T10:24:52.467Z,14.07
2019-01-26T10:27:20.867Z,15.07
2019-01-26T10:29:47.401Z,14.70
2019-01-26T10:32:13.935Z,14.40
2019-01-26T10:34:40.470Z,15.50
2019-01-26T10:37:07.005Z,15.60
2019-01-26T10:39:33.539Z,13.97
2019-01-26T10:42:00.074Z,14.73
2019-01-26T10:44:26.917Z,15.03
2019-01-26T10:46:53.449Z,14.63
2019-01-26T10:49:19.987Z,17.13
2019-01-26T10:51:46.827Z,14.30
2019-01-26T10:54:13.360Z,14.50
2019-01-26T10:56:39.895Z,14.47
2019-01-26T10:59:06.736Z,14.53
2019-01-26T11:01:33.580Z,14.57
2019-01-26T11:04:00.424Z,14.90
2019-01-26T11:06:27.262Z,14.13
2019-01-26T11:08:54.103Z,14.27
2019-01-26T11:11:20.642Z,15.63
2019-01-26T11:13:47.173Z,14.80
2019-01-26T11:16:13.695Z,14.47
2019-01-26T11:18:40.548Z,13.83
2019-01-26T11:21:07.084Z,14.57
2019-01-26T11:23:33.618Z,14.47
2019-01-26T11:26:00.152Z,14.00
2019-01-26T11:28:26.688Z,13.87
2019-01-26T11:30:53.529Z,14.33
2019-01-26T11:33:20.068Z,14.23
2019-01-26T11:35:47.212Z,14.57
2019-01-26T11:38:14.063Z,13.73
2019-01-26T11:40:40.899Z,14.10
2019-01-26T11:43:07.738Z,15.77
2019-01-26T11:45:34.273Z,13.67
2019-01-26T11:48:00.806Z,13.13
2019-01-26T11:50:27.342Z,14.47
2019-01-26T11:52:54.184Z,13.17
2019-01-26T11:55:21.024Z,15.40
2019-01-26T11:57:47.558Z,15.03
2019-01-26T12:00:14.401Z,14.53
2019-01-26T12:02:40.938Z,14.80
2019-01-26T12:05:07.779Z,12.97
2019-01-26T12:07:34.618Z,13.20
2019-01-26T12:10:01.459Z,13.47
2019-01-26T12:12:27.994Z,12.63
2019-01-26T12:14:55.741Z,14.43
2019-01-26T12:17:22.294Z,14.73
2019-01-26T12:19:48.928Z,14.27
2019-01-26T12:22:15.667Z,13.17
2019-01-26T12:24:42.204Z,13.43
2019-01-26T12:27:08.736Z,13.17
2019-01-26T12:29:35.272Z,13.33
2019-01-26T12:32:02.115Z,13.27
2019-01-26T12:34:28.955Z,13.80
2019-01-26T12:36:55.491Z,13.37
2019-01-26T12:39:22.030Z,14.63
2019-01-26T12:41:48.872Z,14.30
2019-01-26T12:44:15.709Z,13.97
2019-01-26T12:46:42.244Z,15.17
2019-01-26T12:49:08.784Z,15.17
2019-01-26T12:51:35.311Z,14.07
2019-01-26T12:54:02.153Z,14.00
2019-01-26T12:56:28.994Z,13.47
2019-01-26T12:58:55.837Z,13.53
2019-01-26T13:01:22.371Z,13.67
2019-01-26T13:03:48.929Z,13.63
2019-01-26T13:06:15.440Z,13.03
2019-01-26T13:08:42.280Z,14.93
2019-01-26T13:11:08.817Z,13.63
2019-01-26T13:13:35.353Z,13.97
2019-01-26T13:16:02.192Z,15.20
2019-01-26T13:18:28.727Z,14.30
2019-01-26T13:20:55.570Z,14.07
2019-01-26T13:23:22.103Z,15.47
2019-01-26T13:25:48.946Z,14.40
2019-01-26T13:28:15.478Z,13.70
2019-01-26T13:30:42.015Z,14.43
2019-01-26T13:33:08.854Z,14.60
2019-01-26T13:35:35.388Z,13.73
2019-01-26T13:38:02.231Z,14.53
2019-01-26T13:40:28.765Z,14.27
2019-01-26T13:42:55.300Z,12.93
2019-01-26T13:45:22.141Z,13.50
2019-01-26T13:47:48.677Z,14.33
2019-01-26T13:50:15.211Z,14.33
2019-01-26T13:52:42.053Z,13.47
2019-01-26T13:55:08.587Z,14.73
2019-01-26T13:57:35.429Z,15.10
2019-01-26T14:00:01.967Z,13.27
2019-01-26T14:02:28.804Z,13.87
2019-01-26T14:04:55.341Z,15.50
2019-01-26T14:07:21.874Z,14.23
2019-01-26T14:09:48.715Z,14.67
2019-01-26T14:12:15.252Z,13.67
2019-01-26T14:14:41.784Z,14.37
2019-01-26T14:17:08.321Z,14.70
2019-01-26T14:19:35.160Z,14.37
2019-01-26T14:22:02.304Z,14.70
2019-01-26T14:24:29.151Z,13.27
2019-01-26T14:26:55.690Z,15.07
2019-01-26T14:29:22.528Z,14.87
2019-01-26T14:31:49.061Z,14.47
2019-01-26T14:34:15.907Z,13.17
2019-01-26T14:36:42.437Z,13.90
2019-01-26T14:39:09.280Z,14.00
2019-01-26T14:41:35.798Z,14.70
2019-01-26T14:44:02.350Z,14.93
2019-01-26T14:46:28.883Z,13.67
2019-01-26T14:48:55.419Z,14.17
2019-01-26T14:51:21.955Z,14.53
2019-01-26T14:53:49.016Z,14.00
2019-01-26T14:56:15.637Z,14.63
2019-01-26T14:58:42.173Z,14.77
2019-01-26T15:01:08.704Z,13.77
2019-01-26T15:03:35.556Z,14.73
2019-01-26T15:06:02.388Z,14.50
2019-01-26T15:08:28.923Z,14.33
2019-01-26T15:10:55.763Z,15.13
2019-01-26T15:13:22.298Z,14.83
2019-01-26T15:15:49.140Z,14.87
2019-01-26T15:18:15.675Z,14.53
2019-01-26T15:20:42.209Z,14.47
2019-01-26T15:23:08.746Z,15.17
2019-01-26T15:25:35.280Z,16.07
2019-01-26T15:28:02.122Z,15.50
2019-01-26T15:30:28.654Z,14.97
2019-01-26T15:32:55.188Z,14.43
2019-01-26T15:35:22.031Z,14.73
2019-01-26T15:37:48.872Z,16.33
2019-01-26T15:40:15.732Z,14.33
2019-01-26T15:42:42.250Z,15.23
2019-01-26T15:45:08.782Z,14.80
2019-01-26T15:47:35.318Z,14.77
2019-01-26T15:50:01.857Z,14.63
2019-01-26T15:52:28.693Z,14.80
2019-01-26T15:54:55.228Z,16.20
2019-01-26T15:57:21.863Z,14.37
2019-01-26T15:59:53.416Z,15.50
2019-01-26T16:02:16.674Z,16.10
2019-01-26T16:04:43.209Z,15.40
2019-01-26T16:07:09.752Z,15.90
2019-01-26T16:09:36.586Z,15.17
2019-01-26T16:12:03.120Z,15.20
2019-01-26T16:14:29.659Z,15.03
2019-01-26T16:16:56.495Z,15.67
2019-01-26T16:19:23.030Z,16.97
2019-01-26T16:21:49.565Z,14.13
2019-01-26T16:24:16.408Z,16.37
2019-01-26T16:26:42.940Z,14.83
2019-01-26T16:29:09.784Z,13.93
2019-01-26T16:31:36.319Z,14.97
2019-01-26T16:34:03.167Z,15.10
2019-01-26T16:36:29.694Z,15.90
2019-01-26T16:38:56.536Z,15.73
2019-01-26T16:41:23.377Z,15.27
2019-01-26T16:43:49.916Z,16.10
2019-01-26T16:46:16.447Z,14.73
2019-01-26T16:48:43.288Z,16.67
2019-01-26T16:51:09.821Z,16.00
2019-01-26T16:53:36.971Z,14.77
2019-01-26T16:56:03.505Z,15.60
2019-01-26T16:58:30.039Z,15.57
2019-01-26T17:00:56.882Z,14.83
2019-01-26T17:03:23.427Z,15.63
2019-01-26T17:05:50.257Z,15.83
2019-01-26T17:08:16.794Z,14.63
2019-01-26T17:10:43.633Z,14.53
2019-01-26T17:13:10.169Z,15.90
2019-01-26T17:15:36.702Z,14.23
2019-01-26T17:18:03.544Z,14.03
2019-01-26T17:20:34.937Z,14.27
2019-01-26T17:22:58.457Z,14.80
2019-01-26T17:25:25.301Z,15.43
2019-01-26T17:27:52.140Z,14.60
2019-01-26T17:30:18.982Z,14.53
2019-01-26T17:32:45.518Z,14.93
2019-01-26T17:35:12.050Z,15.63
2019-01-26T17:37:38.585Z,14.77
2019-01-26T17:40:05.427Z,16.13
2019-01-26T17:42:31.961Z,14.40
2019-01-26T17:44:58.803Z,16.13
2019-01-26T17:47:25.339Z,14.40
2019-01-26T17:49:51.883Z,13.70
2019-01-26T17:52:18.714Z,14.40
2019-01-26T17:54:45.556Z,14.13
2019-01-26T17:57:12.398Z,14.73
2019-01-26T17:59:39.241Z,15.67
2019-01-26T18:02:05.776Z,14.87
2019-01-26T18:04:32.313Z,14.30
2019-01-26T18:06:59.150Z,14.17
2019-01-26T18:09:25.991Z,14.20
2019-01-26T18:11:52.525Z,16.07
2019-01-26T18:14:19.067Z,14.50
2019-01-26T18:16:45.594Z,13.27
2019-01-26T18:19:12.131Z,14.27
2019-01-26T18:21:38.663Z,13.47
2019-01-26T18:24:05.198Z,13.83
2019-01-26T18:26:31.736Z,15.07
2019-01-26T18:28:58.268Z,14.47
2019-01-26T18:31:25.109Z,14.00
2019-01-26T18:33:51.952Z,16.10
2019-01-26T18:36:18.485Z,14.47
2019-01-26T18:38:45.020Z,14.73
2019-01-26T18:41:11.553Z,15.07
2019-01-26T18:43:38.396Z,13.77
2019-01-26T18:46:05.244Z,12.87
2019-01-26T18:48:31.776Z,14.13
2019-01-26T18:50:58.613Z,13.43
2019-01-26T18:53:25.149Z,14.67
2019-01-26T18:55:51.990Z,13.60
2019-01-26T18:58:18.523Z,14.30
2019-01-26T19:00:45.058Z,13.33
2019-01-26T19:03:11.592Z,14.23
2019-01-26T19:05:38.130Z,14.00
2019-01-26T19:08:05.000Z,13.97
2019-01-26T19:10:31.812Z,14.07
2019-01-26T19:12:58.348Z,12.47
2019-01-26T19:15:25.189Z,13.47
2019-01-26T19:17:52.028Z,13.63
2019-01-26T19:20:18.879Z,14.20
2019-01-26T19:25:30.734Z,13.97
2019-01-26T19:27:57.524Z,13.33
2019-01-26T19:30:24.056Z,13.03
2019-01-26T19:32:50.898Z,13.70
2019-01-26T19:35:17.432Z,13.80
2019-01-26T19:37:44.274Z,14.43
2019-01-26T19:40:10.810Z,14.47
2019-01-26T19:42:37.650Z,14.87
2019-01-26T19:45:04.184Z,14.73
2019-01-26T19:47:30.717Z,14.10
2019-01-26T19:50:02.748Z,14.50
2019-01-26T19:52:29.011Z,14.27
2019-01-26T19:54:55.850Z,13.97
2019-01-26T19:57:22.693Z,14.90
2019-01-26T19:59:49.233Z,13.67
2019-01-26T20:02:16.068Z,13.37
2019-01-26T20:04:42.603Z,14.27
2019-01-26T20:07:09.445Z,13.20
2019-01-26T20:09:35.979Z,12.80
2019-01-26T20:12:02.515Z,14.00
2019-01-26T20:14:29.357Z,14.30
2019-01-26T20:16:55.903Z,13.93
2019-01-26T20:19:22.426Z,15.07
2019-01-26T20:21:48.965Z,13.87
2019-01-26T20:24:15.530Z,14.33
2019-01-26T20:26:42.335Z,12.87
2019-01-26T20:29:08.869Z,14.23
2019-01-26T20:31:35.711Z,13.67
2019-01-26T20:34:02.553Z,13.47
2019-01-26T20:36:29.090Z,14.90
2019-01-26T20:38:55.930Z,14.07
2019-01-26T20:41:22.770Z,15.63
2019-01-26T20:43:49.615Z,14.33
2019-01-26T20:46:16.149Z,13.60
2019-01-26T20:48:42.684Z,16.90
2019-01-26T20:51:09.523Z,14.93
2019-01-26T20:53:36.366Z,15.20
2019-01-26T20:56:03.208Z,15.43
2019-01-26T20:58:30.051Z,16.57
2019-01-26T21:00:56.888Z,16.33
2019-01-26T21:03:23.722Z,14.93
2019-01-26T21:05:50.595Z,14.43
2019-01-26T21:08:17.415Z,15.90
2019-01-26T21:10:44.258Z,15.53
2019-01-26T21:13:16.224Z,15.73
2019-01-26T21:15:39.171Z,15.13
2019-01-26T21:18:06.012Z,15.43
2019-01-26T21:20:32.854Z,15.17
2019-01-26T21:22:59.694Z,16.30
2019-01-26T21:25:26.230Z,17.13
2019-01-26T21:27:53.073Z,13.67
2019-01-26T21:30:19.938Z,16.20
2019-01-26T21:32:46.446Z,14.47
2019-01-26T21:35:13.288Z,15.53
2019-01-26T21:37:40.130Z,16.43
2019-01-26T21:40:06.972Z,14.83
2019-01-26T21:42:33.507Z,15.67
2019-01-26T21:45:00.041Z,15.60
2019-01-26T21:47:26.886Z,15.00
2019-01-26T21:49:53.419Z,14.33
2019-01-26T21:52:20.260Z,16.40
2019-01-26T21:54:47.103Z,14.73
2019-01-26T21:57:13.943Z,16.67
2019-01-26T21:59:40.479Z,15.83
2019-01-26T22:02:07.324Z,15.43
2019-01-26T22:04:34.161Z,15.50
2019-01-26T22:07:00.695Z,16.27
2019-01-26T22:09:27.239Z,15.87
2019-01-26T22:11:53.764Z,16.67
2019-01-26T22:14:20.299Z,15.77
2019-01-26T22:16:47.448Z,17.27
2019-01-26T22:19:14.289Z,17.13
2019-01-26T22:21:46.022Z,14.83
2019-01-26T22:24:09.202Z,16.63
2019-01-26T22:26:36.042Z,16.57
2019-01-26T22:29:02.884Z,16.90
2019-01-26T22:31:29.726Z,15.47
2019-01-26T22:33:56.762Z,15.70
2019-01-26T22:36:23.409Z,15.63
2019-01-26T22:38:49.947Z,16.73
2019-01-26T22:41:16.479Z,17.20
2019-01-26T22:43:43.015Z,14.73
2019-01-26T22:46:09.854Z,15.60
2019-01-26T22:48:36.391Z,16.20
2019-01-26T22:51:02.922Z,15.00
2019-01-26T22:53:29.765Z,15.83
2019-01-26T22:55:56.605Z,15.40
2019-01-26T22:58:23.142Z,16.87
2019-01-26T23:00:49.675Z,15.63
2019-01-26T23:03:16.210Z,17.23
2019-01-26T23:05:43.341Z,16.30
2019-01-26T23:08:10.207Z,16.10
2019-01-26T23:10:37.045Z,15.63
2019-01-26T23:13:03.580Z,15.77
2019-01-26T23:15:30.111Z,17.40
2019-01-26T23:17:56.954Z,16.20
2019-01-26T23:20:23.795Z,17.20
2019-01-26T23:22:50.636Z,17.93
2019-01-26T23:25:17.478Z,16.33
2019-01-26T23:27:44.014Z,15.33
2019-01-26T23:30:10.551Z,15.83
2019-01-26T23:32:37.082Z,16.50
2019-01-26T23:35:03.621Z,15.90
2019-01-26T23:37:30.151Z,15.13
2019-01-26T23:39:56.995Z,16.13
2019-01-26T23:42:23.835Z,16.80
2019-01-26T23:44:50.368Z,18.17
2019-01-26T23:47:16.904Z,16.90
2019-01-26T23:49:43.747Z,16.27
2019-01-26T23:52:10.289Z,16.10
2019-01-26T23:54:37.122Z,16.30
2019-01-26T23:57:03.658Z,17.73
2019-01-26T23:59:30.192Z,17.30
